Time;durP1;ratioP1;P1;durP2;ratioP2;P2;SDS_P1;SDS_P2;PMS_P1;PMS_P2;Temp;Humidity;BMP_temperature;BMP_pressure;BME280_temperature;BME280_humidity;BME280_pressure;Samples;Min_cycle;Max_cycle;Signal;HPM_P1;HPM_P2
2023/06/19 00:04:31;;;;;;;;;;;;;;;;;;5112137;27;19916;-63
2023/06/19 00:08:19;;;;;;;;;;;;;;;;;;5111467;27;19916;-62
2023/06/19 00:13:41;;;;;;;;;;;;;;;;;;5112097;27;20380;-64
2023/06/19 00:16:06;;;;;;;;;;;;;;;;;;5111324;28;20330;-64
2023/06/19 00:18:39;;;;;;;;;;;;;;;;;;5110559;28;19954;-64
2023/06/19 00:21:47;;;;;;;;;;;;;;;;;;5112197;27;19919;-65
2023/06/19 00:24:13;;;;;;;;;;;;;;;;;;5111405;28;19916;-64
2023/06/19 00:26:40;;;;;;;;;;;;;;;;;;5110411;28;19909;-64
2023/06/19 00:29:07;;;;;;;;;;;;;;;;;;5111737;28;19908;-64
2023/06/19 00:31:32;;;;;;;;;;;;;;;;;;5111735;28;19912;-64
2023/06/19 00:33:58;;;;;;;;;;;;;;;;;;5110271;28;20383;-64
2023/06/19 00:36:25;;;;;;;;;;;;;;;;;;5111124;28;19998;-64
2023/06/19 00:38:51;;;;;;;;;;;;;;;;;;5111460;28;20379;-65
2023/06/19 00:43:33;;;;;;;;;;;;;;;;;;5111747;27;20384;-64
2023/06/19 00:45:59;;;;;;;;;;;;;;;;;;5111747;28;19995;-64
2023/06/19 00:51:41;;;;;;;;;;;;;;;;;;5152775;27;20347;-63
2023/06/19 00:54:07;;;;;;;;;;;;;;;;;;5152956;27;19958;-64
2023/06/19 00:58:24;;;;;;;;;;;;;;;;;;5111370;27;19912;-63
2023/06/19 01:01:23;;;;;;;;;;;;;;;;;;5112627;27;19916;-62
2023/06/19 01:04:28;;;;;;;;;;;;;;;;;;5111791;27;19919;-63
2023/06/19 01:06:58;;;;;;;;;;;;;;;;;;5110451;28;20026;-63
2023/06/19 01:09:24;;;;;;;;;;;;;;;;;;5111683;28;19908;-62
2023/06/19 01:11:50;;;;;;;;;;;;;;;;;;5111259;28;19954;-64
2023/06/19 01:18:11;;;;;;;;;;;;;;;;;;5112604;27;20365;-63
2023/06/19 01:20:37;;;;;;;;;;;;;;;;;;5111355;28;19919;-63
2023/06/19 01:23:03;;;;;;;;;;;;;;;;;;5111683;28;19908;-63
2023/06/19 01:25:29;;;;;;;;;;;;;;;;;;5111281;28;20006;-63
2023/06/19 01:27:55;;;;;;;;;;;;;;;;;;5111599;28;19914;-63
2023/06/19 01:30:58;;;;;;;;;;;;;;;;;;5092010;27;19916;-62
2023/06/19 01:33:25;;;;;;;;;;;;;;;;;;5091068;28;19954;-62
2023/06/19 01:40:31;;;;;;;;;;;;;;;;;;5111871;27;19923;-63
2023/06/19 01:49:54;;;;;;;;;;;;;;;;;;5091820;28;19923;-63
2023/06/19 01:52:20;;;;;;;;;;;;;;;;;;5090114;28;20369;-63
2023/06/19 01:55:41;;;;;;;;;;;;;;;;;;5111449;27;19916;-63
2023/06/19 01:58:07;;;;;;;;;;;;;;;;;;5110453;28;20011;-62
2023/06/19 02:08:46;;;;;;;;;;;;;;;;;;5111656;27;19916;-63
2023/06/19 02:11:11;;;;;;;;;;;;;;;;;;5111841;28;20446;-63
2023/06/19 02:17:55;;;;;;;;;;;;;;;;;;5111887;27;19915;-65
2023/06/19 02:25:00;;;;;;;;;;;;;;;;;;5112491;27;19918;-64
2023/06/19 02:35:34;;;;;;;;;;;;;;;;;;5091588;27;19922;-62
2023/06/19 02:41:50;;;;;;;;;;;;;;;;;;5153071;27;20290;-65
2023/06/19 02:44:16;;;;;;;;;;;;;;;;;;5133940;27;19994;-62
2023/06/19 02:46:41;;;;;;;;;;;;;;;;;;5152907;27;20333;-62
2023/06/19 02:49:07;;;;;;;;;;;;;;;;;;5134328;27;19908;-62
2023/06/19 02:51:33;;;;;;;;;;;;;;;;;;5152615;27;19914;-65
2023/06/19 02:53:59;;;;;;;;;;;;;;;;;;5152773;27;19911;-63
2023/06/19 03:00:03;;;;;;;;;;;;;;;;;;5111757;27;20315;-62
2023/06/19 03:03:12;;;;;;;;;;;;;;;;;;5112392;27;19923;-65
2023/06/19 03:05:37;;;;;;;;;;;;;;;;;;5111484;28;19912;-65
2023/06/19 03:08:03;;;;;;;;;;;;;;;;;;5111681;28;19912;-63
2023/06/19 03:13:09;;;;;;;;;;;;;;;;;;5091759;28;19916;-65
2023/06/19 03:15:35;;;;;;;;;;;;;;;;;;5091472;28;20007;-64
2023/06/19 03:18:04;;;;;;;;;;;;;;;;;;5090961;28;20383;-62
2023/06/19 03:20:30;;;;;;;;;;;;;;;;;;5091272;28;19948;-62
2023/06/19 03:24:48;;;;;;;;;;;;;;;;;;5111815;27;19916;-62
2023/06/19 03:27:14;;;;;;;;;;;;;;;;;;5111329;28;19919;-62
2023/06/19 03:32:56;;;;;;;;;;;;;;;;;;5111510;27;19916;-62
2023/06/19 03:35:22;;;;;;;;;;;;;;;;;;5111854;28;20007;-62
2023/06/19 03:37:48;;;;;;;;;;;;;;;;;;5111725;28;19941;-62
2023/06/19 03:40:14;;;;;;;;;;;;;;;;;;5111353;28;20292;-62
2023/06/19 03:42:40;;;;;;;;;;;;;;;;;;5111663;28;20253;-63
2023/06/19 03:45:06;;;;;;;;;;;;;;;;;;5111580;28;19912;-63
2023/06/19 03:48:02;;;;;;;;;;;;;;;;;;5071004;28;19916;-64
2023/06/19 03:58:36;;;;;;;;;;;;;;;;;;5112476;27;19916;-63
2023/06/19 04:01:03;;;;;;;;;;;;;;;;;;5111403;28;19918;-65
2023/06/19 04:04:38;;;;;;;;;;;;;;;;;;5112006;27;19922;-63
2023/06/19 04:08:10;;;;;;;;;;;;;;;;;;5091540;27;19917;-62
2023/06/19 04:10:36;;;;;;;;;;;;;;;;;;5091375;28;20004;-65
2023/06/19 04:14:23;;;;;;;;;;;;;;;;;;5091313;27;19916;-63
2023/06/19 04:16:49;;;;;;;;;;;;;;;;;;5091434;28;19999;-63
2023/06/19 04:19:15;;;;;;;;;;;;;;;;;;5091587;28;19947;-63
2023/06/19 04:22:32;;;;;;;;;;;;;;;;;;5111744;27;19916;-63
2023/06/19 04:24:58;;;;;;;;;;;;;;;;;;5110818;28;19999;-63
2023/06/19 04:27:24;;;;;;;;;;;;;;;;;;5111694;28;19914;-63
2023/06/19 04:30:08;;;;;;;;;;;;;;;;;;5091307;27;19917;-65
2023/06/19 04:32:40;;;;;;;;;;;;;;;;;;5091485;28;19919;-63
2023/06/19 04:35:06;;;;;;;;;;;;;;;;;;5091350;28;19915;-64
2023/06/19 04:37:32;;;;;;;;;;;;;;;;;;5090906;28;20003;-64
2023/06/19 04:39:58;;;;;;;;;;;;;;;;;;5091194;28;19913;-65
2023/06/19 04:43:35;;;;;;;;;;;;;;;;;;5091358;28;19916;-65
2023/06/19 04:46:03;;;;;;;;;;;;;;;;;;5091438;28;19913;-63
2023/06/19 04:48:29;;;;;;;;;;;;;;;;;;5091305;28;20313;-63
2023/06/19 04:50:56;;;;;;;;;;;;;;;;;;5089616;28;19908;-63
2023/06/19 04:53:22;;;;;;;;;;;;;;;;;;5089948;28;19912;-63
2023/06/19 04:56:39;;;;;;;;;;;;;;;;;;5111477;27;19912;-63
2023/06/19 05:03:04;;;;;;;;;;;;;;;;;;5111914;27;19912;-63
2023/06/19 05:05:30;;;;;;;;;;;;;;;;;;5111400;28;20015;-63
2023/06/19 05:10:45;;;;;;;;;;;;;;;;;;5112045;27;19916;-63
2023/06/19 05:13:11;;;;;;;;;;;;;;;;;;5111800;28;20002;-64
2023/06/19 05:18:25;;;;;;;;;;;;;;;;;;5111282;27;19912;-60
2023/06/19 05:26:54;;;;;;;;;;;;;;;;;;5111578;27;19923;-59
2023/06/19 05:29:20;;;;;;;;;;;;;;;;;;5111632;28;19912;-60
2023/06/19 05:31:46;;;;;;;;;;;;;;;;;;5124369;28;19912;-59
2023/06/19 05:34:12;;;;;;;;;;;;;;;;;;5130731;28;19908;-60
2023/06/19 05:36:38;;;;;;;;;;;;;;;;;;5125655;27;19915;-60
2023/06/19 05:42:07;;;;;;;;;;;;;;;;;;5151071;27;19918;-60
2023/06/19 05:44:33;;;;;;;;;;;;;;;;;;5132716;27;20018;-59
2023/06/19 05:46:59;;;;;;;;;;;;;;;;;;5128743;27;20588;-60
2023/06/19 05:54:03;;;;;;;;;;;;;;;;;;5090967;27;19916;-60
2023/06/19 05:57:34;;;;;;;;;;;;;;;;;;5091324;27;19916;-62
2023/06/19 06:02:33;;;;;;;;;;;;;;;;;;5088336;27;19926;-59
2023/06/19 06:09:10;;;;;;;;;;;;;;;;;;5120242;27;20026;-59
2023/06/19 06:12:38;;;;;;;;;;;;;;;;;;5108347;27;19916;-60
2023/06/19 06:17:15;;;;;;;;;;;;;;;;;;5109495;27;19938;-59
2023/06/19 06:22:38;;;;;;;;;;;;;;;;;;5108375;27;19927;-60
2023/06/19 06:27:29;;;;;;;;;;;;;;;;;;5086041;27;19916;-59
2023/06/19 06:29:54;;;;;;;;;;;;;;;;;;5084611;28;20373;-59
2023/06/19 06:32:20;;;;;;;;;;;;;;;;;;5077772;28;19935;-59
2023/06/19 06:35:39;;;;;;;;;;;;;;;;;;5103439;27;19939;-60
2023/06/19 06:38:05;;;;;;;;;;;;;;;;;;5089874;28;20007;-62
2023/06/19 06:40:55;;;;;;;;;;;;;;;;;;5093545;27;20292;-60
2023/06/19 06:45:51;;;;;;;;;;;;;;;;;;5090026;27;19924;-59
2023/06/19 06:50:35;;;;;;;;;;;;;;;;;;5106737;27;20292;-61
2023/06/19 06:53:01;;;;;;;;;;;;;;;;;;5104766;27;19918;-60
2023/06/19 06:57:58;;;;;;;;;;;;;;;;;;5067924;28;19920;-61
2023/06/19 07:00:44;;;;;;;;;;;;;;;;;;5086519;27;20295;-61
2023/06/19 07:03:11;;;;;;;;;;;;;;;;;;5086818;28;20003;-60
2023/06/19 07:05:37;;;;;;;;;;;;;;;;;;5088542;28;19916;-62
2023/06/19 07:08:03;;;;;;;;;;;;;;;;;;5086530;28;19916;-62
2023/06/19 07:10:29;;;;;;;;;;;;;;;;;;5081094;28;19948;-63
2023/06/19 07:12:55;;;;;;;;;;;;;;;;;;5089096;28;19927;-62
2023/06/19 07:24:58;;;;;;;;;;;;;;;;;;5048586;28;19917;-63
2023/06/19 07:27:27;;;;;;;;;;;;;;;;;;5048024;28;20385;-62
2023/06/19 07:29:53;;;;;;;;;;;;;;;;;;5045672;28;19913;-63
2023/06/19 07:32:19;;;;;;;;;;;;;;;;;;5047994;28;19917;-65
2023/06/19 07:36:24;;;;;;;;;;;;;;;;;;5089805;27;19917;-65
2023/06/19 07:40:34;;;;;;;;;;;;;;;;;;5087328;27;19925;-63
2023/06/19 07:43:02;;;;;;;;;;;;;;;;;;5085267;28;20386;-63
2023/06/19 07:45:28;;;;;;;;;;;;;;;;;;5094008;28;19912;-64
2023/06/19 07:47:55;;;;;;;;;;;;;;;;;;5108829;28;19912;-63
2023/06/19 07:50:20;;;;;;;;;;;;;;;;;;5108327;28;19919;-63
2023/06/19 07:56:00;;;;;;;;;;;;;;;;;;5077870;27;19924;-63
2023/06/19 07:58:26;;;;;;;;;;;;;;;;;;5068672;28;19935;-64
2023/06/19 08:02:41;;;;;;;;;;;;;;;;;;5083283;28;20313;-64
2023/06/19 08:07:17;;;;;;;;;;;;;;;;;;5074730;27;20482;-62
2023/06/19 08:09:43;;;;;;;;;;;;;;;;;;5083413;28;19923;-63
2023/06/19 08:12:09;;;;;;;;;;;;;;;;;;5086772;28;19909;-63
2023/06/19 08:14:35;;;;;;;;;;;;;;;;;;5086293;28;19920;-63
2023/06/19 08:22:09;;;;;;;;;;;;;;;;;;5085722;27;20497;-63
2023/06/19 08:24:36;;;;;;;;;;;;;;;;;;5072152;28;19920;-64
2023/06/19 08:29:28;;;;;;;;;;;;;;;;;;5081301;28;19934;-64
2023/06/19 08:31:54;;;;;;;;;;;;;;;;;;5086848;28;19916;-63
2023/06/19 08:34:20;;;;;;;;;;;;;;;;;;5082404;28;19915;-64
2023/06/19 08:36:46;;;;;;;;;;;;;;;;;;5087871;28;19950;-65
2023/06/19 08:41:30;;;;;;;;;;;;;;;;;;5106201;27;19912;-64
2023/06/19 08:43:56;;;;;;;;;;;;;;;;;;5105658;28;20102;-64
2023/06/19 08:46:22;;;;;;;;;;;;;;;;;;5108418;28;19916;-64
2023/06/19 08:48:48;;;;;;;;;;;;;;;;;;5089794;28;19916;-65
2023/06/19 08:51:14;;;;;;;;;;;;;;;;;;5107980;28;20034;-65
2023/06/19 08:55:39;;;;;;;;;;;;;;;;;;5106519;27;20376;-64
2023/06/19 08:58:05;;;;;;;;;;;;;;;;;;5105530;28;19912;-65
2023/06/19 09:00:31;;;;;;;;;;;;;;;;;;5106683;28;19919;-63
2023/06/19 09:02:58;;;;;;;;;;;;;;;;;;5106232;28;19912;-64
2023/06/19 09:05:25;;;;;;;;;;;;;;;;;;5103379;28;19923;-66
2023/06/19 09:07:51;;;;;;;;;;;;;;;;;;5102177;28;19908;-64
2023/06/19 09:10:17;;;;;;;;;;;;;;;;;;5103206;28;19939;-65
2023/06/19 09:12:44;;;;;;;;;;;;;;;;;;5104428;28;19962;-67
2023/06/19 09:16:12;;;;;;;;;;;;;;;;;;5011795;27;3828769;-65
2023/06/19 09:18:38;;;;;;;;;;;;;;;;;;5147685;27;19937;-65
2023/06/19 09:21:38;;;;;;;;;;;;;;;;;;5105218;27;19916;-65
2023/06/19 09:24:04;;;;;;;;;;;;;;;;;;5105486;28;19912;-65
2023/06/19 09:26:30;;;;;;;;;;;;;;;;;;5105617;28;19961;-63
2023/06/19 09:28:56;;;;;;;;;;;;;;;;;;5102137;28;20545;-65
2023/06/19 09:31:22;;;;;;;;;;;;;;;;;;5094750;28;20630;-64
2023/06/19 09:36:04;;;;;;;;;;;;;;;;;;5106589;27;19922;-65
2023/06/19 09:38:30;;;;;;;;;;;;;;;;;;5106470;28;19955;-64
2023/06/19 09:40:56;;;;;;;;;;;;;;;;;;5108205;28;20398;-63
2023/06/19 09:43:22;;;;;;;;;;;;;;;;;;5109930;28;20427;-64
2023/06/19 09:45:50;;;;;;;;;;;;;;;;;;5101092;28;19918;-64
2023/06/19 09:48:22;;;;;;;;;;;;;;;;;;5108062;28;19919;-64
2023/06/19 09:50:47;;;;;;;;;;;;;;;;;;5107600;28;19912;-63
2023/06/19 09:55:13;;;;;;;;;;;;;;;;;;5087980;27;19913;-64
2023/06/19 09:57:39;;;;;;;;;;;;;;;;;;5085262;28;19919;-65
2023/06/19 10:02:38;;;;;;;;;;;;;;;;;;5150410;27;19911;-63
2023/06/19 10:05:04;;;;;;;;;;;;;;;;;;5142460;27;19934;-61
2023/06/19 10:07:31;;;;;;;;;;;;;;;;;;5129184;27;19934;-62
2023/06/19 10:09:57;;;;;;;;;;;;;;;;;;5129551;28;19969;-62
2023/06/19 10:12:56;;;;;;;;;;;;;;;;;;5108102;27;19916;-63
2023/06/19 10:15:22;;;;;;;;;;;;;;;;;;5108829;28;19955;-61
2023/06/19 10:18:48;;;;;;;;;;;;;;;;;;5108909;27;19916;-61
2023/06/19 10:21:14;;;;;;;;;;;;;;;;;;5108585;28;19912;-62
2023/06/19 10:23:40;;;;;;;;;;;;;;;;;;5108740;28;19934;-62
2023/06/19 10:26:25;;;;;;;;;;;;;;;;;;5108848;27;20404;-61
2023/06/19 10:29:45;;;;;;;;;;;;;;;;;;5151780;27;19918;-61
2023/06/19 10:32:11;;;;;;;;;;;;;;;;;;5151504;27;20014;-62
2023/06/19 10:34:37;;;;;;;;;;;;;;;;;;5151770;27;19907;-61
2023/06/19 10:37:04;;;;;;;;;;;;;;;;;;5142592;27;20368;-61
2023/06/19 10:41:49;;;;;;;;;;;;;;;;;;5086060;28;20308;-66
2023/06/19 10:44:15;;;;;;;;;;;;;;;;;;5086354;28;19919;-65
2023/06/19 10:46:41;;;;;;;;;;;;;;;;;;5089692;28;20334;-66
2023/06/19 10:49:07;;;;;;;;;;;;;;;;;;5090048;28;19970;-64
2023/06/19 10:51:33;;;;;;;;;;;;;;;;;;5089340;28;19912;-62
2023/06/19 10:53:59;;;;;;;;;;;;;;;;;;5090354;28;20292;-63
2023/06/19 10:56:25;;;;;;;;;;;;;;;;;;5089880;28;20331;-67
2023/06/19 10:58:53;;;;;;;;;;;;;;;;;;5090499;28;20250;-66
2023/06/19 11:01:21;;;;;;;;;;;;;;;;;;5090538;28;19923;-65
2023/06/19 11:05:46;;;;;;;;;;;;;;;;;;5090405;27;19913;-67
2023/06/19 11:08:13;;;;;;;;;;;;;;;;;;5090519;28;20379;-66
2023/06/19 11:10:39;;;;;;;;;;;;;;;;;;5090080;28;19919;-67
2023/06/19 11:13:05;;;;;;;;;;;;;;;;;;5090525;28;20299;-65
2023/06/19 11:15:31;;;;;;;;;;;;;;;;;;5089499;28;19922;-64
2023/06/19 11:17:57;;;;;;;;;;;;;;;;;;5088939;28;20017;-65
2023/06/19 11:20:24;;;;;;;;;;;;;;;;;;5088963;28;19916;-64
2023/06/19 11:22:50;;;;;;;;;;;;;;;;;;5089366;28;19909;-65
2023/06/19 11:25:16;;;;;;;;;;;;;;;;;;5089027;28;20292;-64
2023/06/19 11:27:42;;;;;;;;;;;;;;;;;;5089937;28;19973;-64
2023/06/19 11:30:09;;;;;;;;;;;;;;;;;;5085612;28;19978;-64
2023/06/19 11:32:41;;;;;;;;;;;;;;;;;;5087729;28;19916;-65
2023/06/19 11:35:07;;;;;;;;;;;;;;;;;;5088464;28;19916;-66
2023/06/19 11:37:34;;;;;;;;;;;;;;;;;;5087949;28;19908;-65
2023/06/19 11:40:00;;;;;;;;;;;;;;;;;;5086688;28;20418;-65
2023/06/19 11:42:26;;;;;;;;;;;;;;;;;;5086625;28;20070;-65
2023/06/19 11:44:52;;;;;;;;;;;;;;;;;;5086686;28;20411;-64
2023/06/19 11:47:18;;;;;;;;;;;;;;;;;;5086390;28;19913;-65
2023/06/19 11:49:44;;;;;;;;;;;;;;;;;;5086356;28;19927;-66
2023/06/19 11:52:10;;;;;;;;;;;;;;;;;;5087314;28;19908;-66
2023/06/19 11:54:36;;;;;;;;;;;;;;;;;;5087761;28;19916;-65
2023/06/19 11:57:02;;;;;;;;;;;;;;;;;;5089609;28;19916;-66
2023/06/19 11:59:30;;;;;;;;;;;;;;;;;;5089316;28;20414;-66
2023/06/19 12:01:58;;;;;;;;;;;;;;;;;;5089440;28;19909;-66
2023/06/19 12:04:23;;;;;;;;;;;;;;;;;;5089172;28;20003;-66
2023/06/19 12:06:49;;;;;;;;;;;;;;;;;;5089049;28;20050;-65
2023/06/19 12:09:15;;;;;;;;;;;;;;;;;;5089781;28;19912;-65
2023/06/19 12:11:41;;;;;;;;;;;;;;;;;;5089567;28;19909;-66
2023/06/19 12:14:07;;;;;;;;;;;;;;;;;;5089433;28;19915;-65
2023/06/19 12:16:33;;;;;;;;;;;;;;;;;;5077642;28;20369;-66
2023/06/19 12:18:59;;;;;;;;;;;;;;;;;;5076199;28;19947;-67
2023/06/19 12:21:25;;;;;;;;;;;;;;;;;;5075894;28;20011;-66
2023/06/19 12:23:51;;;;;;;;;;;;;;;;;;5074942;28;19958;-67
2023/06/19 12:26:17;;;;;;;;;;;;;;;;;;5074915;28;19912;-66
2023/06/19 12:28:43;;;;;;;;;;;;;;;;;;5074213;28;19909;-64
2023/06/19 12:31:09;;;;;;;;;;;;;;;;;;5075071;28;19909;-67
2023/06/19 12:33:36;;;;;;;;;;;;;;;;;;5074273;28;19919;-64
2023/06/19 12:36:03;;;;;;;;;;;;;;;;;;5074512;28;19930;-65
2023/06/19 12:38:29;;;;;;;;;;;;;;;;;;5071057;28;19913;-65
2023/06/19 12:40:55;;;;;;;;;;;;;;;;;;5073544;28;20458;-65
2023/06/19 12:43:21;;;;;;;;;;;;;;;;;;5073338;28;20349;-65
2023/06/19 12:45:47;;;;;;;;;;;;;;;;;;5072129;28;20386;-64
2023/06/19 12:48:13;;;;;;;;;;;;;;;;;;5071567;28;19922;-63
2023/06/19 12:50:39;;;;;;;;;;;;;;;;;;5070422;28;19908;-63
2023/06/19 12:53:05;;;;;;;;;;;;;;;;;;5072039;28;20316;-63
2023/06/19 12:55:30;;;;;;;;;;;;;;;;;;5072421;28;20323;-63
2023/06/19 12:57:56;;;;;;;;;;;;;;;;;;5069928;28;20014;-63
2023/06/19 13:00:22;;;;;;;;;;;;;;;;;;5071486;28;20369;-64
2023/06/19 13:02:48;;;;;;;;;;;;;;;;;;5069941;28;20397;-63
2023/06/19 13:05:14;;;;;;;;;;;;;;;;;;5072039;28;20344;-63
2023/06/19 13:07:42;;;;;;;;;;;;;;;;;;5072477;28;19913;-63
2023/06/19 13:10:08;;;;;;;;;;;;;;;;;;5070682;28;20135;-63
2023/06/19 13:12:34;;;;;;;;;;;;;;;;;;5073723;28;20380;-64
2023/06/19 13:15:00;;;;;;;;;;;;;;;;;;5072849;28;20353;-64
2023/06/19 13:17:26;;;;;;;;;;;;;;;;;;5072757;28;19915;-64
2023/06/19 13:19:52;;;;;;;;;;;;;;;;;;5071031;28;20296;-65
2023/06/19 13:22:18;;;;;;;;;;;;;;;;;;5072872;28;19934;-65
2023/06/19 13:24:44;;;;;;;;;;;;;;;;;;5072490;28;19956;-65
2023/06/19 13:27:10;;;;;;;;;;;;;;;;;;5070725;28;19920;-64
2023/06/19 13:29:36;;;;;;;;;;;;;;;;;;5073231;28;19913;-63
2023/06/19 13:32:02;;;;;;;;;;;;;;;;;;5074388;28;19962;-65
2023/06/19 13:34:28;;;;;;;;;;;;;;;;;;5073892;28;19909;-64
2023/06/19 13:36:54;;;;;;;;;;;;;;;;;;5074529;28;19940;-63
2023/06/19 13:39:20;;;;;;;;;;;;;;;;;;5074864;28;19908;-63
2023/06/19 13:41:46;;;;;;;;;;;;;;;;;;5073720;28;20420;-65
2023/06/19 13:44:12;;;;;;;;;;;;;;;;;;5074677;28;20304;-64
2023/06/19 13:46:38;;;;;;;;;;;;;;;;;;5073571;28;19912;-65
2023/06/19 13:49:04;;;;;;;;;;;;;;;;;;5073703;28;20317;-65
2023/06/19 13:51:30;;;;;;;;;;;;;;;;;;5074459;28;20284;-64
2023/06/19 13:53:56;;;;;;;;;;;;;;;;;;5074687;28;20269;-64
2023/06/19 13:56:23;;;;;;;;;;;;;;;;;;5074550;28;19923;-65
2023/06/19 13:58:49;;;;;;;;;;;;;;;;;;5073883;28;19908;-64
2023/06/19 14:01:15;;;;;;;;;;;;;;;;;;5073967;28;20393;-64
2023/06/19 14:03:41;;;;;;;;;;;;;;;;;;5072920;28;19975;-64
2023/06/19 14:06:07;;;;;;;;;;;;;;;;;;5073148;28;19916;-64
2023/06/19 14:08:33;;;;;;;;;;;;;;;;;;5074271;28;19908;-64
2023/06/19 14:10:58;;;;;;;;;;;;;;;;;;5074152;28;19908;-64
2023/06/19 14:13:24;;;;;;;;;;;;;;;;;;5073595;28;19911;-64
2023/06/19 14:15:52;;;;;;;;;;;;;;;;;;5072944;28;20356;-64
2023/06/19 14:18:18;;;;;;;;;;;;;;;;;;5072879;28;19904;-64
2023/06/19 14:20:44;;;;;;;;;;;;;;;;;;5072320;28;19908;-64
2023/06/19 14:23:10;;;;;;;;;;;;;;;;;;5073381;28;19958;-64
2023/06/19 14:25:35;;;;;;;;;;;;;;;;;;5073125;28;19921;-63
2023/06/19 14:28:02;;;;;;;;;;;;;;;;;;5073621;28;19908;-64
2023/06/19 14:30:28;;;;;;;;;;;;;;;;;;5073926;28;20369;-64
2023/06/19 14:32:54;;;;;;;;;;;;;;;;;;5071261;28;19983;-63
2023/06/19 14:35:20;;;;;;;;;;;;;;;;;;5071374;28;19909;-64
2023/06/19 14:37:45;;;;;;;;;;;;;;;;;;5071695;28;19982;-65
2023/06/19 14:40:11;;;;;;;;;;;;;;;;;;5071401;28;20400;-65
2023/06/19 14:42:37;;;;;;;;;;;;;;;;;;5070498;28;20296;-64
2023/06/19 14:45:03;;;;;;;;;;;;;;;;;;5071500;28;20333;-64
2023/06/19 14:47:29;;;;;;;;;;;;;;;;;;5070464;28;19908;-64
2023/06/19 14:49:55;;;;;;;;;;;;;;;;;;5073178;28;19919;-64
2023/06/19 14:52:21;;;;;;;;;;;;;;;;;;5072426;28;19909;-63
2023/06/19 14:54:47;;;;;;;;;;;;;;;;;;5073224;28;19908;-64
2023/06/19 14:57:13;;;;;;;;;;;;;;;;;;5073383;28;19999;-63
2023/06/19 14:59:39;;;;;;;;;;;;;;;;;;5073607;28;19916;-64
2023/06/19 15:02:06;;;;;;;;;;;;;;;;;;5073164;28;19965;-63
2023/06/19 15:04:32;;;;;;;;;;;;;;;;;;5071768;28;19931;-64
2023/06/19 15:06:58;;;;;;;;;;;;;;;;;;5073286;28;19916;-63
2023/06/19 15:09:25;;;;;;;;;;;;;;;;;;5073005;28;19932;-63
2023/06/19 15:11:51;;;;;;;;;;;;;;;;;;5073453;28;19909;-63
2023/06/19 15:14:17;;;;;;;;;;;;;;;;;;5073264;28;19915;-63
2023/06/19 15:16:43;;;;;;;;;;;;;;;;;;5073012;28;19908;-63
2023/06/19 15:19:09;;;;;;;;;;;;;;;;;;5072994;28;19915;-63
2023/06/19 15:21:35;;;;;;;;;;;;;;;;;;5073219;28;19912;-63
2023/06/19 15:24:01;;;;;;;;;;;;;;;;;;5072562;28;19917;-63
2023/06/19 15:26:27;;;;;;;;;;;;;;;;;;5073236;28;19954;-63
2023/06/19 15:28:53;;;;;;;;;;;;;;;;;;5071477;28;19909;-64
2023/06/19 15:31:19;;;;;;;;;;;;;;;;;;5071686;28;19909;-64
2023/06/19 15:33:45;;;;;;;;;;;;;;;;;;5073257;28;19951;-64
2023/06/19 15:36:11;;;;;;;;;;;;;;;;;;5073119;28;19915;-64
2023/06/19 15:38:37;;;;;;;;;;;;;;;;;;5071475;28;19908;-64
2023/06/19 15:41:03;;;;;;;;;;;;;;;;;;5073014;28;20361;-64
2023/06/19 15:43:30;;;;;;;;;;;;;;;;;;5071059;28;19915;-64
2023/06/19 15:45:56;;;;;;;;;;;;;;;;;;5072072;28;20010;-64
2023/06/19 15:48:22;;;;;;;;;;;;;;;;;;5072623;28;19940;-63
2023/06/19 15:50:48;;;;;;;;;;;;;;;;;;5073622;28;20023;-63
2023/06/19 15:53:14;;;;;;;;;;;;;;;;;;5076479;28;19912;-64
2023/06/19 15:55:41;;;;;;;;;;;;;;;;;;5076647;28;19908;-64
2023/06/19 15:58:07;;;;;;;;;;;;;;;;;;5076316;28;19936;-64
2023/06/19 16:00:33;;;;;;;;;;;;;;;;;;5076577;28;19944;-64
2023/06/19 16:02:59;;;;;;;;;;;;;;;;;;5076472;28;19954;-64
2023/06/19 16:05:25;;;;;;;;;;;;;;;;;;5075840;28;19931;-64
2023/06/19 16:07:51;;;;;;;;;;;;;;;;;;5076576;28;19908;-64
2023/06/19 16:10:17;;;;;;;;;;;;;;;;;;5076538;28;20256;-64
2023/06/19 16:12:43;;;;;;;;;;;;;;;;;;5076162;28;20281;-63
2023/06/19 16:15:12;;;;;;;;;;;;;;;;;;5074890;28;19959;-64
2023/06/19 16:17:38;;;;;;;;;;;;;;;;;;5076237;28;19908;-64
2023/06/19 16:20:04;;;;;;;;;;;;;;;;;;5075570;28;20273;-63
2023/06/19 16:22:30;;;;;;;;;;;;;;;;;;5075785;28;19931;-64
2023/06/19 16:27:10;;;;;;;;;;;;;;;;;;5131254;27;19918;-63
2023/06/19 16:29:36;;;;;;;;;;;;;;;;;;5131928;28;19911;-63
2023/06/19 16:32:04;;;;;;;;;;;;;;;;;;5131897;28;19907;-64
2023/06/19 16:34:30;;;;;;;;;;;;;;;;;;5131639;28;19911;-63
2023/06/19 16:36:56;;;;;;;;;;;;;;;;;;5131782;28;19953;-63
2023/06/19 16:39:22;;;;;;;;;;;;;;;;;;5132332;28;19908;-63
2023/06/19 16:41:48;;;;;;;;;;;;;;;;;;5113107;28;19923;-64
2023/06/19 16:44:14;;;;;;;;;;;;;;;;;;5131748;28;19908;-65
2023/06/19 16:46:40;;;;;;;;;;;;;;;;;;5131512;28;19916;-64
2023/06/19 16:49:06;;;;;;;;;;;;;;;;;;5112772;28;20289;-64
2023/06/19 16:51:32;;;;;;;;;;;;;;;;;;5131627;28;19915;-64
2023/06/19 16:56:14;;;;;;;;;;;;;;;;;;5091199;27;19916;-62
2023/06/19 16:58:40;;;;;;;;;;;;;;;;;;5089917;28;20003;-63
2023/06/19 17:01:05;;;;;;;;;;;;;;;;;;5090718;28;19908;-63
2023/06/19 17:03:31;;;;;;;;;;;;;;;;;;5089916;28;19919;-63
2023/06/19 17:05:57;;;;;;;;;;;;;;;;;;5091158;28;19909;-64
2023/06/19 17:08:24;;;;;;;;;;;;;;;;;;5090660;28;20330;-64
2023/06/19 17:10:50;;;;;;;;;;;;;;;;;;5091024;28;19962;-65
2023/06/19 17:13:16;;;;;;;;;;;;;;;;;;5090927;28;19912;-64
2023/06/19 17:15:42;;;;;;;;;;;;;;;;;;5089250;28;20377;-64
2023/06/19 17:18:08;;;;;;;;;;;;;;;;;;5090936;28;19916;-64
2023/06/19 17:21:18;;;;;;;;;;;;;;;;;;5111772;27;20360;-63
2023/06/19 17:23:45;;;;;;;;;;;;;;;;;;5111359;28;19922;-66
2023/06/19 17:26:11;;;;;;;;;;;;;;;;;;5111600;28;19908;-63
2023/06/19 17:30:35;;;;;;;;;;;;;;;;;;5131924;27;20452;-62
2023/06/19 17:33:02;;;;;;;;;;;;;;;;;;5130651;28;19916;-63
2023/06/19 17:35:28;;;;;;;;;;;;;;;;;;5131972;27;19908;-63
2023/06/19 17:41:53;;;;;;;;;;;;;;;;;;5111957;27;20380;-64
2023/06/19 17:45:46;;;;;;;;;;;;;;;;;;5132218;27;19973;-62
2023/06/19 17:51:10;;;;;;;;;;;;;;;;;;5090796;27;19922;-63
2023/06/19 17:53:36;;;;;;;;;;;;;;;;;;5091348;28;20003;-62
2023/06/19 17:56:04;;;;;;;;;;;;;;;;;;5091303;28;19908;-63
2023/06/19 17:58:31;;;;;;;;;;;;;;;;;;5090830;28;20028;-63
2023/06/19 18:04:51;;;;;;;;;;;;;;;;;;5111361;27;20376;-62
2023/06/19 18:07:17;;;;;;;;;;;;;;;;;;5111531;28;20323;-65
2023/06/19 18:15:40;;;;;;;;;;;;;;;;;;5111756;27;19913;-64
2023/06/19 18:23:25;;;;;;;;;;;;;;;;;;5111294;27;19912;-62
2023/06/19 18:28:54;;;;;;;;;;;;;;;;;;5090981;28;19916;-63
2023/06/19 18:31:20;;;;;;;;;;;;;;;;;;5090834;28;19956;-64
2023/06/19 18:33:46;;;;;;;;;;;;;;;;;;5090289;28;19951;-64
2023/06/19 18:38:01;;;;;;;;;;;;;;;;;;5091062;27;19927;-65
2023/06/19 18:40:27;;;;;;;;;;;;;;;;;;5090587;28;20001;-65
2023/06/19 18:42:53;;;;;;;;;;;;;;;;;;5090838;28;19908;-65
2023/06/19 18:45:19;;;;;;;;;;;;;;;;;;5090777;28;19962;-65
2023/06/19 18:47:45;;;;;;;;;;;;;;;;;;5090508;28;19908;-65
2023/06/19 18:51:36;;;;;;;;;;;;;;;;;;5111738;27;19916;-63
2023/06/19 18:54:02;;;;;;;;;;;;;;;;;;5110925;28;19919;-64
2023/06/19 18:58:39;;;;;;;;;;;;;;;;;;5111336;27;19922;-63
2023/06/19 19:01:05;;;;;;;;;;;;;;;;;;5110713;28;20007;-63
2023/06/19 19:03:51;;;;;;;;;;;;;;;;;;5132228;27;20486;-63
2023/06/19 19:06:42;;;;;;;;;;;;;;;;;;5091179;27;19919;-64
2023/06/19 19:11:04;;;;;;;;;;;;;;;;;;5152199;27;20500;-62
2023/06/19 19:13:30;;;;;;;;;;;;;;;;;;5133700;27;20010;-63
2023/06/19 19:17:25;;;;;;;;;;;;;;;;;;5152484;27;20002;-63
2023/06/19 19:19:51;;;;;;;;;;;;;;;;;;5152428;27;19961;-63
2023/06/19 19:23:03;;;;;;;;;;;;;;;;;;5130105;27;19988;-63
2023/06/19 19:25:29;;;;;;;;;;;;;;;;;;5131889;28;19947;-63
2023/06/19 19:27:55;;;;;;;;;;;;;;;;;;5130583;28;19911;-62
2023/06/19 19:31:18;;;;;;;;;;;;;;;;;;5111195;27;19916;-65
2023/06/19 19:33:44;;;;;;;;;;;;;;;;;;5110124;28;20007;-63
2023/06/19 19:41:51;;;;;;;;;;;;;;;;;;5111637;27;19916;-65
2023/06/19 19:45:52;;;;;;;;;;;;;;;;;;5091748;27;19916;-65
2023/06/19 19:48:20;;;;;;;;;;;;;;;;;;5091236;28;20386;-64
2023/06/19 19:50:46;;;;;;;;;;;;;;;;;;5090847;28;19914;-63
2023/06/19 19:57:24;;;;;;;;;;;;;;;;;;5111845;27;19916;-63
2023/06/19 20:03:51;;;;;;;;;;;;;;;;;;5111617;27;19919;-65
2023/06/19 20:06:40;;;;;;;;;;;;;;;;;;5112593;27;19912;-65
2023/06/19 20:09:57;;;;;;;;;;;;;;;;;;5111685;27;20386;-64
2023/06/19 20:12:23;;;;;;;;;;;;;;;;;;5111387;28;19912;-64
2023/06/19 20:14:49;;;;;;;;;;;;;;;;;;5111601;28;19915;-64
2023/06/19 20:17:15;;;;;;;;;;;;;;;;;;5111290;28;19926;-65
2023/06/19 20:20:45;;;;;;;;;;;;;;;;;;5091400;27;19917;-64
2023/06/19 20:25:49;;;;;;;;;;;;;;;;;;5111757;27;19922;-65
2023/06/19 20:31:50;;;;;;;;;;;;;;;;;;5111971;27;19922;-65
2023/06/19 20:34:16;;;;;;;;;;;;;;;;;;5111631;28;19912;-65
2023/06/19 20:36:42;;;;;;;;;;;;;;;;;;5111539;28;19921;-64
2023/06/19 20:39:08;;;;;;;;;;;;;;;;;;5109849;28;19950;-66
2023/06/19 20:41:37;;;;;;;;;;;;;;;;;;5111444;28;19908;-63
2023/06/19 20:44:03;;;;;;;;;;;;;;;;;;5111541;28;19961;-65
2023/06/19 20:46:29;;;;;;;;;;;;;;;;;;5111078;28;19912;-65
2023/06/19 20:51:27;;;;;;;;;;;;;;;;;;5112287;27;19912;-65
2023/06/19 20:53:55;;;;;;;;;;;;;;;;;;5111281;28;19922;-64
2023/06/19 20:56:21;;;;;;;;;;;;;;;;;;5111646;28;19961;-64